createdAt,value
2022-09-05T00:01:05.980Z,5.50
2022-09-05T00:06:03.619Z,5.05
2022-09-05T00:11:42.917Z,8.25
2022-09-05T00:16:53.468Z,7.03
2022-09-05T00:24:27.354Z,6.18
2022-09-05T00:27:28.787Z,7.18
2022-09-05T00:32:35.432Z,7.85
2022-09-05T00:37:40.979Z,5.45
2022-09-05T00:42:37.365Z,17.75
2022-09-05T00:47:47.959Z,6.22
2022-09-05T00:53:07.520Z,6.03
2022-09-05T00:58:20.117Z,9.20
2022-09-05T01:03:35.580Z,9.10
2022-09-05T01:08:31.571Z,8.88
2022-09-05T01:13:37.107Z,7.07
2022-09-05T01:18:54.937Z,8.02
2022-09-05T01:24:28.047Z,9.55
2022-09-05T01:29:51.543Z,8.50
2022-09-05T01:35:06.518Z,7.05
2022-09-05T01:40:15.753Z,7.20
2022-09-05T01:45:40.942Z,6.88
2022-09-05T01:50:57.680Z,7.03
2022-09-05T01:56:14.071Z,6.35
2022-09-05T02:01:34.706Z,5.68
2022-09-05T02:06:44.120Z,5.53
2022-09-05T02:11:57.687Z,8.57
2022-09-05T02:16:51.739Z,6.65
2022-09-05T02:22:12.129Z,8.13
2022-09-05T02:27:48.931Z,5.47
2022-09-05T02:32:59.092Z,6.73
2022-09-05T02:39:49.909Z,5.47
2022-09-05T02:45:11.420Z,9.30
2022-09-05T02:50:07.028Z,5.22
2022-09-05T02:57:34.405Z,8.38
2022-09-05T03:00:01.996Z,8.02
2022-09-05T03:05:04.563Z,9.80
2022-09-05T03:10:26.733Z,6.07
2022-09-05T03:15:41.479Z,8.23
2022-09-05T03:20:56.479Z,6.07
2022-09-05T03:26:34.067Z,9.83
2022-09-05T03:32:01.277Z,5.88
2022-09-05T03:37:10.234Z,5.25
2022-09-05T03:42:32.726Z,6.22
2022-09-05T03:47:37.515Z,6.88
2022-09-05T03:57:13.048Z,5.60
2022-09-05T03:58:36.783Z,15.05
2022-09-05T04:08:07.407Z,7.97
2022-09-05T04:09:10.698Z,6.68
2022-09-05T04:14:38.664Z,10.65
2022-09-05T04:19:37.880Z,7.18
2022-09-05T04:24:34.486Z,8.20
2022-09-05T04:29:38.739Z,8.30
2022-09-05T04:34:56.467Z,7.93
2022-09-05T04:39:51.052Z,8.18
2022-09-05T04:45:09.534Z,8.75
2022-09-05T04:50:37.611Z,9.43
2022-09-05T04:55:41.046Z,9.35
2022-09-05T05:06:02.167Z,13.85
2022-09-05T05:06:43.982Z,11.93
2022-09-05T05:17:05.137Z,10.23
2022-09-05T05:18:15.635Z,14.13
2022-09-05T05:22:23.144Z,8.77
2022-09-05T05:27:16.532Z,15.45
2022-09-05T05:32:45.833Z,17.30
2022-09-05T05:38:07.796Z,13.63
2022-09-05T05:43:23.410Z,13.25
2022-09-05T05:48:19.742Z,10.25
2022-09-05T05:53:42.593Z,8.90
2022-09-05T05:58:53.506Z,10.00
2022-09-05T06:04:25.364Z,11.75
2022-09-05T06:14:56.141Z,10.35
2022-09-05T06:15:27.553Z,12.57
2022-09-05T06:22:10.882Z,12.02
2022-09-05T06:26:03.252Z,8.68
2022-09-05T06:31:30.918Z,10.13
2022-09-05T06:36:53.633Z,10.32
2022-09-05T06:42:36.719Z,18.67
2022-09-05T06:47:34.666Z,10.95
2022-09-05T06:52:42.911Z,11.57
2022-09-05T06:58:07.156Z,11.77
2022-09-05T07:03:19.728Z,14.63
2022-09-05T07:08:35.258Z,12.93
2022-09-05T07:13:44.869Z,10.75
2022-09-05T07:18:46.932Z,13.38
2022-09-05T07:24:13.615Z,11.13
2022-09-05T07:29:09.878Z,8.70
2022-09-05T07:34:20.889Z,8.57
2022-09-05T07:39:28.838Z,15.05
2022-09-05T07:44:28.564Z,16.00
2022-09-05T07:49:24.371Z,12.20
2022-09-05T07:56:51.279Z,7.82
2022-09-05T07:59:37.758Z,13.70
2022-09-05T08:04:33.614Z,8.23
2022-09-05T08:10:08.678Z,10.00
2022-09-05T08:15:23.815Z,9.50
2022-09-05T08:20:48.155Z,10.35
2022-09-05T08:26:21.724Z,8.40
2022-09-05T08:31:19.837Z,11.93
2022-09-05T08:36:43.800Z,10.70
2022-09-05T08:42:05.554Z,10.65
2022-09-05T08:47:18.909Z,5.25
2022-09-05T08:52:47.293Z,6.85
2022-09-05T08:57:46.688Z,4.70
2022-09-05T09:03:03.867Z,5.80
2022-09-05T09:08:16.437Z,7.38
2022-09-05T09:13:14.038Z,9.02
2022-09-05T09:18:16.519Z,6.38
2022-09-05T09:23:36.684Z,7.88
2022-09-05T09:28:49.894Z,8.15
2022-09-05T09:34:05.933Z,3.38
2022-09-05T09:39:38.212Z,5.65
2022-09-05T09:45:22.513Z,3.05
2022-09-05T09:50:33.460Z,2.35
2022-09-05T09:55:51.253Z,4.25
2022-09-05T10:00:52.030Z,3.07
2022-09-05T10:10:39.725Z,2.75
2022-09-05T10:11:52.159Z,2.00
2022-09-05T10:17:15.247Z,3.22
2022-09-05T10:22:40.098Z,3.35
2022-09-05T10:27:53.946Z,2.10
2022-09-05T10:35:04.511Z,3.05
2022-09-05T10:38:34.588Z,5.25
2022-09-05T10:43:31.926Z,4.00
2022-09-05T10:48:53.434Z,5.63
2022-09-05T10:54:26.036Z,4.47
2022-09-05T11:02:20.213Z,6.55
2022-09-05T11:05:05.270Z,3.78
2022-09-05T11:10:23.416Z,2.65
2022-09-05T11:15:33.097Z,2.67
2022-09-05T11:20:40.363Z,2.90
2022-09-05T11:25:41.255Z,5.65
2022-09-05T11:30:41.332Z,2.78
2022-09-05T11:39:47.121Z,4.15
2022-09-05T11:41:49.251Z,8.50
2022-09-05T11:47:29.981Z,4.40
2022-09-05T11:52:54.487Z,4.45
2022-09-05T11:58:43.269Z,2.03
2022-09-05T12:03:57.113Z,2.60
2022-09-05T12:09:11.965Z,5.25
2022-09-05T12:14:33.400Z,6.27
2022-09-05T12:20:16.931Z,1.85
2022-09-05T12:25:29.603Z,2.30
2022-09-05T12:36:12.859Z,3.90
2022-09-05T12:41:44.424Z,5.85
2022-09-05T12:42:10.953Z,5.03
2022-09-05T12:47:16.792Z,9.18
2022-09-05T12:52:17.751Z,5.55
2022-09-05T13:01:03.646Z,1.27
2022-09-05T13:03:26.822Z,7.00
2022-09-05T13:08:14.130Z,3.72
2022-09-05T13:14:57.459Z,3.28
2022-09-05T13:18:56.499Z,3.08
2022-09-05T13:24:02.878Z,6.63
2022-09-05T13:29:10.350Z,1.67
2022-09-05T13:38:12.203Z,2.63
2022-09-05T13:39:28.883Z,4.32
2022-09-05T13:44:27.488Z,5.97
2022-09-05T13:49:31.362Z,2.00
2022-09-05T13:54:51.875Z,4.10
2022-09-05T14:00:27.882Z,5.65
2022-09-05T14:05:32.191Z,2.42
2022-09-05T14:10:45.944Z,3.55
2022-09-05T14:15:53.202Z,2.15
2022-09-05T14:21:18.773Z,4.82
2022-09-05T14:26:18.699Z,7.35
2022-09-05T14:37:34.774Z,2.63
2022-09-05T14:37:46.540Z,2.47
2022-09-05T14:42:16.948Z,6.22
2022-09-05T14:47:41.236Z,3.10
2022-09-05T14:52:43.400Z,3.95
2022-09-05T15:02:48.459Z,3.92
2022-09-05T15:11:08.844Z,2.80
2022-09-05T15:18:46.361Z,4.82
2022-09-05T15:23:46.092Z,3.10
2022-09-05T15:28:49.410Z,6.80
2022-09-05T15:33:49.622Z,2.20
2022-09-05T15:38:55.172Z,7.35
2022-09-05T15:44:10.074Z,5.63
2022-09-05T15:49:24.884Z,2.95
2022-09-05T15:54:38.283Z,3.47
2022-09-05T15:59:47.863Z,4.43
2022-09-05T16:07:47.360Z,5.05
2022-09-05T16:10:38.256Z,3.95
2022-09-05T16:19:38.963Z,6.35
2022-09-05T16:23:25.663Z,6.05
2022-09-05T16:26:25.642Z,7.50
2022-09-05T16:31:34.939Z,4.13
2022-09-05T16:36:35.489Z,3.50
2022-09-05T16:41:39.392Z,4.32
2022-09-05T16:47:07.091Z,5.25
2022-09-05T16:52:10.498Z,2.93
2022-09-05T16:57:33.048Z,5.60
2022-09-05T17:02:45.212Z,2.10
2022-09-05T17:07:44.343Z,6.85
2022-09-05T17:12:39.479Z,10.52
2022-09-05T17:18:20.343Z,5.03
2022-09-05T17:27:21.230Z,5.20
2022-09-05T17:29:41.271Z,7.78
2022-09-05T17:34:02.773Z,10.15
2022-09-05T17:39:44.663Z,3.03
2022-09-05T17:44:55.668Z,5.40
2022-09-05T17:49:51.413Z,3.28
2022-09-05T17:54:53.269Z,17.35
2022-09-05T17:59:46.997Z,17.48
2022-09-05T18:04:53.214Z,17.17
2022-09-05T18:10:07.612Z,20.45
2022-09-05T18:15:33.240Z,16.98
2022-09-05T18:20:39.355Z,10.00
2022-09-05T18:25:40.597Z,14.32
2022-09-05T18:30:36.505Z,10.93
2022-09-05T18:35:48.002Z,7.03
2022-09-05T18:41:05.700Z,8.30
2022-09-05T18:46:08.418Z,6.93
2022-09-05T18:51:15.167Z,3.08
2022-09-05T18:57:02.987Z,5.03
2022-09-05T19:01:57.630Z,5.13
2022-09-05T19:06:52.569Z,3.15
2022-09-05T19:11:55.357Z,3.30
2022-09-05T19:16:50.478Z,5.03
2022-09-05T19:21:46.700Z,6.28
2022-09-05T19:27:18.105Z,4.40
2022-09-05T19:36:54.342Z,5.80
2022-09-05T19:37:41.033Z,4.25
2022-09-05T19:47:28.823Z,2.63
2022-09-05T19:48:07.374Z,2.30
2022-09-05T19:53:06.438Z,3.28
2022-09-05T19:58:18.555Z,4.50
2022-09-05T20:03:22.708Z,2.58
2022-09-05T20:08:15.696Z,3.17
2022-09-05T20:13:23.709Z,3.55
2022-09-05T20:18:21.843Z,8.45
2022-09-05T20:23:16.396Z,3.67
2022-09-05T20:28:14.646Z,2.95
2022-09-05T20:33:21.709Z,3.75
2022-09-05T20:43:14.798Z,3.93
2022-09-05T20:43:58.043Z,4.28
2022-09-05T20:54:14.521Z,4.68
2022-09-05T20:54:32.234Z,5.53
2022-09-05T20:59:32.155Z,2.60
2022-09-05T21:04:33.749Z,3.15
2022-09-05T21:09:29.721Z,3.35
2022-09-05T21:14:25.173Z,2.40
2022-09-05T21:19:29.757Z,8.25
2022-09-05T21:24:25.034Z,5.05
2022-09-05T21:29:32.995Z,3.25
2022-09-05T21:34:38.709Z,4.32
2022-09-05T21:40:00.525Z,2.03
2022-09-05T21:47:35.074Z,7.65
2022-09-05T21:50:15.622Z,3.65
2022-09-05T21:59:29.387Z,2.78
2022-09-05T22:00:52.340Z,3.25
2022-09-05T22:05:46.391Z,3.40
2022-09-05T22:10:51.768Z,3.35
2022-09-05T22:15:48.706Z,3.70
2022-09-05T22:20:42.965Z,11.32
2022-09-05T22:25:35.755Z,2.78
2022-09-05T22:30:29.791Z,9.15
2022-09-05T22:35:28.628Z,2.65
2022-09-05T22:40:23.542Z,6.38
2022-09-05T22:45:16.862Z,8.07
2022-09-05T22:50:11.112Z,2.95
2022-09-05T22:55:05.417Z,4.95
2022-09-05T23:00:00.023Z,5.15
2022-09-05T23:04:54.323Z,5.05
2022-09-05T23:09:48.494Z,4.45
2022-09-05T23:14:41.224Z,7.05
2022-09-05T23:19:35.700Z,5.00
2022-09-05T23:24:29.819Z,7.22
2022-09-05T23:29:23.808Z,3.45
2022-09-05T23:34:17.881Z,4.00
2022-09-05T23:39:12.867Z,4.63
2022-09-05T23:44:05.835Z,2.53
2022-09-05T23:48:59.395Z,6.03
2022-09-05T23:53:53.511Z,3.55
2022-09-05T23:58:48.126Z,5.70
